createdAt,value
2022-11-29T00:01:01.342Z,101164.31
2022-11-29T00:03:28.551Z,101155.53
2022-11-29T00:05:55.613Z,101156.50
2022-11-29T00:08:24.117Z,101155.53
2022-11-29T00:10:50.649Z,101157.25
2022-11-29T00:13:17.543Z,101156.13
2022-11-29T00:15:44.011Z,101162.75
2022-11-29T00:18:10.519Z,101153.94
2022-11-29T00:20:39.284Z,101152.69
2022-11-29T00:23:06.035Z,101156.50
2022-11-29T00:25:32.574Z,101160.06
2022-11-29T00:27:59.083Z,101164.59
2022-11-29T00:30:25.697Z,101156.38
2022-11-29T00:32:52.240Z,101165.56
2022-11-29T00:35:18.667Z,101163.59
2022-11-29T00:37:45.209Z,101158.47
2022-11-29T00:40:12.126Z,101163.16
2022-11-29T00:42:38.582Z,101167.84
2022-11-29T00:45:05.567Z,101159.47
2022-11-29T00:47:32.064Z,101162.44
2022-11-29T00:49:58.561Z,101159.03
2022-11-29T00:52:24.992Z,101163.84
2022-11-29T00:54:51.507Z,101156.47
2022-11-29T00:57:17.975Z,101161.16
2022-11-29T00:59:44.491Z,101163.00
2022-11-29T01:02:10.939Z,101168.66
2022-11-29T01:04:37.682Z,101176.03
2022-11-29T01:07:04.153Z,101178.97
2022-11-29T01:09:30.591Z,101177.44
2022-11-29T01:11:57.076Z,101173.16
2022-11-29T01:14:23.576Z,101181.25
2022-11-29T01:16:50.018Z,101178.41
2022-11-29T01:19:16.462Z,101178.41
2022-11-29T01:21:42.908Z,101176.72
2022-11-29T01:24:09.349Z,101182.81
2022-11-29T01:26:35.834Z,101186.34
2022-11-29T01:29:02.319Z,101191.84
2022-11-29T01:31:36.005Z,101189.75
2022-11-29T01:34:04.101Z,101191.31
2022-11-29T01:36:31.304Z,101189.31
2022-11-29T01:39:01.833Z,101193.16
2022-11-29T01:41:31.291Z,101195.44
2022-11-29T01:44:12.924Z,101199.53
2022-11-29T01:46:44.452Z,101195.56
2022-11-29T01:49:17.041Z,101203.78
2022-11-29T01:51:49.409Z,101206.06
2022-11-29T01:54:16.147Z,101201.53
2022-11-29T01:56:47.221Z,101210.72
2022-11-29T01:59:17.205Z,101207.47
2022-11-29T02:01:43.757Z,101210.88
2022-11-29T02:04:10.630Z,101210.31
2022-11-29T02:06:38.739Z,101213.28
2022-11-29T02:09:05.597Z,101221.22
2022-11-29T02:11:48.743Z,101213.44
2022-11-29T02:14:45.601Z,101219.22
2022-11-29T02:17:27.005Z,101218.53
2022-11-29T02:20:15.559Z,101208.59
2022-11-29T02:22:56.599Z,101208.91
2022-11-29T02:25:27.887Z,101214.72
2022-11-29T02:28:35.681Z,101208.75
2022-11-29T02:31:34.019Z,101220.09
2022-11-29T02:34:34.408Z,101224.88
2022-11-29T02:37:19.630Z,101220.47
2022-11-29T02:40:07.361Z,101224.88
2022-11-29T02:42:54.140Z,101222.78
2022-11-29T02:45:33.898Z,101220.91
2022-11-29T02:48:18.645Z,101215.97
2022-11-29T02:50:50.726Z,101225.47
2022-11-29T02:53:32.576Z,101226.59
2022-11-29T02:56:01.770Z,101227.16
2022-11-29T02:58:41.912Z,101231.84
2022-11-29T03:01:32.964Z,101231.84
2022-11-29T03:04:36.887Z,101240.31
2022-11-29T03:07:16.582Z,101236.94
2022-11-29T03:10:31.079Z,101246.84
2022-11-29T03:12:59.068Z,101242.69
2022-11-29T03:15:38.739Z,101250.06
2022-11-29T03:18:20.543Z,101248.94
2022-11-29T03:21:07.569Z,101252.63
2022-11-29T03:23:50.119Z,101253.72
2022-11-29T03:26:38.276Z,101255.88
2022-11-29T03:29:23.276Z,101265.94
2022-11-29T03:32:22.881Z,101266.38
2022-11-29T03:35:04.113Z,101256.91
2022-11-29T03:37:59.558Z,101256.16
2022-11-29T03:40:42.125Z,101269.59
2022-11-29T03:43:36.967Z,101273.03
2022-11-29T03:46:12.241Z,101269.34
2022-11-29T03:48:49.745Z,101273.03
2022-11-29T03:51:19.081Z,101272.19
2022-11-29T03:53:57.339Z,101270.34
2022-11-29T03:56:37.552Z,101272.88
2022-11-29T03:59:06.875Z,101277.94
2022-11-29T04:01:42.614Z,101282.63
2022-11-29T04:04:35.274Z,101287.28
2022-11-29T04:07:25.722Z,101293.38
2022-11-29T04:10:29.519Z,101308.81
2022-11-29T04:13:14.596Z,101308.09
2022-11-29T04:16:06.113Z,101300.31
2022-11-29T04:18:57.784Z,101305.84
2022-11-29T04:21:42.339Z,101307.97
2022-11-29T04:24:38.329Z,101307.97
2022-11-29T04:27:23.274Z,101305.41
2022-11-29T04:30:02.126Z,101306.28
2022-11-29T04:32:37.767Z,101312.78
2022-11-29T04:35:25.529Z,101305.53
2022-11-29T04:38:10.395Z,101312.34
2022-11-29T04:40:50.906Z,101313.31
2022-11-29T04:43:27.970Z,101314.03
2022-11-29T04:46:25.183Z,101314.47
2022-11-29T04:49:07.298Z,101328.91
2022-11-29T04:52:02.831Z,101328.06
2022-11-29T04:55:30.891Z,101334.81
2022-11-29T04:58:01.546Z,101332.13
2022-11-29T05:00:34.161Z,101331.16
2022-11-29T05:03:09.137Z,101336.66
2022-11-29T05:05:50.800Z,101332.41
2022-11-29T05:08:41.223Z,101342.44
2022-11-29T05:11:23.423Z,101343.59
2022-11-29T05:14:08.814Z,101350.09
2022-11-29T05:16:50.297Z,101350.09
2022-11-29T05:19:29.745Z,101364.81
2022-11-29T05:22:19.852Z,101359.16
2022-11-29T05:25:00.890Z,101357.91
2022-11-29T05:27:47.084Z,101360.59
2022-11-29T05:30:15.256Z,101368.94
2022-11-29T05:32:44.677Z,101372.06
2022-11-29T05:35:35.909Z,101368.22
2022-11-29T05:38:07.320Z,101372.03
2022-11-29T05:40:39.531Z,101377.88
2022-11-29T05:43:05.998Z,101377.00
2022-11-29T05:45:43.466Z,101382.38
2022-11-29T05:48:28.707Z,101387.91
2022-11-29T05:51:16.154Z,101380.09
2022-11-29T05:53:46.656Z,101384.47
2022-11-29T05:56:25.238Z,101387.06
2022-11-29T05:58:57.917Z,101392.25
2022-11-29T06:01:45.435Z,101394.69
2022-11-29T06:04:21.656Z,101397.47
2022-11-29T06:06:57.842Z,101398.94
2022-11-29T06:09:29.352Z,101400.34
2022-11-29T06:12:02.544Z,101401.38
2022-11-29T06:14:57.046Z,101401.38
2022-11-29T06:17:55.222Z,101407.06
2022-11-29T06:20:52.081Z,101412.50
2022-11-29T06:23:41.539Z,101422.69
2022-11-29T06:26:46.089Z,101429.03
2022-11-29T06:29:38.881Z,101426.22
2022-11-29T06:32:05.292Z,101435.28
2022-11-29T06:35:01.509Z,101432.44
2022-11-29T06:37:45.990Z,101433.31
2022-11-29T06:40:15.844Z,101440.41
2022-11-29T06:42:42.728Z,101438.09
2022-11-29T06:45:14.250Z,101440.06
2022-11-29T06:47:52.697Z,101439.09
2022-11-29T06:50:33.856Z,101442.47
2022-11-29T06:53:12.548Z,101446.63
2022-11-29T06:56:12.922Z,101454.03
2022-11-29T06:59:05.702Z,101460.84
2022-11-29T07:01:44.490Z,101454.88
2022-11-29T07:04:44.246Z,101457.03
2022-11-29T07:07:17.962Z,101458.50
2022-11-29T07:09:47.370Z,101457.44
2022-11-29T07:12:14.320Z,101465.25
2022-11-29T07:14:41.461Z,101473.78
2022-11-29T07:17:26.761Z,101473.91
2022-11-29T07:20:02.565Z,101476.34
2022-11-29T07:23:00.776Z,101481.66
2022-11-29T07:25:48.324Z,101481.28
2022-11-29T07:28:34.616Z,101493.78
2022-11-29T07:31:29.919Z,101502.91
2022-11-29T07:34:21.359Z,101507.19
2022-11-29T07:36:59.797Z,101510.16
2022-11-29T07:39:35.206Z,101512.75
2022-11-29T07:42:01.622Z,101514.88
2022-11-29T07:44:53.780Z,101531.91
2022-11-29T07:47:20.276Z,101532.16
2022-11-29T07:49:46.731Z,101539.75
2022-11-29T07:52:15.731Z,101532.75
2022-11-29T07:54:42.709Z,101537.00
2022-11-29T07:57:09.280Z,101535.19
2022-11-29T07:59:35.758Z,101528.94
2022-11-29T08:02:05.505Z,101540.31
2022-11-29T08:04:35.412Z,101531.13
2022-11-29T08:07:02.031Z,101536.03
2022-11-29T08:09:28.547Z,101536.75
2022-11-29T08:11:54.975Z,101533.69
2022-11-29T08:14:21.521Z,101538.34
2022-11-29T08:16:48.106Z,101544.44
2022-11-29T08:19:14.641Z,101537.94
2022-11-29T08:21:43.729Z,101537.81
2022-11-29T08:24:10.403Z,101534.75
2022-11-29T08:26:36.862Z,101539.03
2022-11-29T08:29:03.546Z,101541.72
2022-11-29T08:31:30.061Z,101541.72
2022-11-29T08:33:56.566Z,101549.63
2022-11-29T08:36:23.045Z,101541.56
2022-11-29T08:38:50.990Z,101550.13
2022-11-29T08:41:19.150Z,101546.72
2022-11-29T08:43:45.742Z,101548.91
2022-11-29T08:46:18.262Z,101556.47
2022-11-29T08:48:45.377Z,101551.81
2022-11-29T08:51:11.988Z,101561.94
2022-11-29T08:53:41.413Z,101562.38
2022-11-29T08:59:07.343Z,101569.53
2022-11-29T09:01:33.911Z,101570.19
2022-11-29T09:04:00.511Z,101576.22
2022-11-29T09:06:28.949Z,101579.84
2022-11-29T09:08:56.788Z,101579.78
2022-11-29T09:11:25.665Z,101583.19
2022-11-29T09:13:55.322Z,101586.47
2022-11-29T09:16:26.359Z,101585.28
2022-11-29T09:18:55.843Z,101591.53
2022-11-29T09:21:27.115Z,101588.69
2022-11-29T09:23:58.991Z,101595.19
2022-11-29T09:26:27.936Z,101611.72
2022-11-29T09:28:54.832Z,101610.31
2022-11-29T09:31:21.978Z,101609.56
2022-11-29T09:33:49.007Z,101610.66
2022-11-29T09:36:15.648Z,101617.53
2022-11-29T09:38:42.413Z,101620.63
2022-11-29T09:41:27.048Z,101624.28
2022-11-29T09:44:18.522Z,101615.56
2022-11-29T09:47:04.374Z,101624.28
2022-11-29T09:50:05.985Z,101631.25
2022-11-29T09:52:55.665Z,101627.91
2022-11-29T09:56:04.679Z,101630.69
2022-11-29T09:58:55.474Z,101623.88
2022-11-29T10:01:27.159Z,101624.34
2022-11-29T10:03:58.264Z,101633.09
2022-11-29T10:06:36.806Z,101632.44
2022-11-29T10:09:20.568Z,101624.41
2022-11-29T10:12:13.605Z,101635.13
2022-11-29T10:14:57.777Z,101628.97
2022-11-29T10:17:34.403Z,101635.47
2022-11-29T10:20:21.154Z,101639.66
2022-11-29T10:23:03.113Z,101638.88
2022-11-29T10:25:37.708Z,101633.44
2022-11-29T10:28:06.225Z,101630.38
2022-11-29T10:30:35.290Z,101631.88
2022-11-29T10:33:02.658Z,101633.78
2022-11-29T10:35:29.513Z,101631.91
2022-11-29T10:40:59.190Z,101628.56
2022-11-29T10:43:26.321Z,101628.81
2022-11-29T10:45:56.288Z,101635.91
2022-11-29T10:48:27.578Z,101630.38
2022-11-29T10:50:54.768Z,101629.47
2022-11-29T10:53:26.993Z,101625.63
2022-11-29T10:56:00.410Z,101621.13
2022-11-29T10:58:29.167Z,101621.44
2022-11-29T11:01:07.481Z,101627.50
2022-11-29T11:03:45.081Z,101631.84
2022-11-29T11:06:21.173Z,101635.53
2022-11-29T11:08:54.576Z,101637.97
2022-11-29T11:11:33.729Z,101635.97
2022-11-29T11:14:25.925Z,101636.66
2022-11-29T11:16:54.025Z,101639.75
2022-11-29T11:19:31.450Z,101634.16
2022-11-29T11:22:00.349Z,101630.84
2022-11-29T11:24:30.090Z,101633.56
2022-11-29T11:26:57.768Z,101641.78
2022-11-29T11:29:42.393Z,101635.69
2022-11-29T11:32:17.239Z,101637.69
2022-11-29T11:34:55.858Z,101633.41
2022-11-29T11:37:31.397Z,101642.53
2022-11-29T11:40:29.195Z,101640.19
2022-11-29T11:42:59.261Z,101648.00
2022-11-29T11:45:27.454Z,101650.69
2022-11-29T11:48:01.487Z,101654.19
2022-11-29T11:50:36.530Z,101648.28
2022-11-29T11:53:36.688Z,101653.41
2022-11-29T11:56:10.121Z,101642.91
2022-11-29T11:58:36.735Z,101644.09
2022-11-29T12:01:12.536Z,101643.53
2022-11-29T12:03:50.175Z,101656.00
2022-11-29T12:06:31.686Z,101653.19
2022-11-29T12:09:04.548Z,101653.03
2022-11-29T12:11:55.304Z,101654.16
2022-11-29T12:14:32.195Z,101660.88
2022-11-29T12:17:28.057Z,101669.13
2022-11-29T12:20:14.323Z,101658.00
2022-11-29T12:23:05.355Z,101665.00
2022-11-29T12:25:50.802Z,101662.47
2022-11-29T12:28:20.889Z,101669.75
2022-11-29T12:31:12.188Z,101672.91
2022-11-29T12:33:57.128Z,101677.19
2022-11-29T12:36:46.981Z,101685.34
2022-11-29T12:39:34.341Z,101682.41
2022-11-29T12:42:23.493Z,101688.13
2022-11-29T12:45:02.228Z,101689.25
2022-11-29T12:47:40.715Z,101685.84
2022-11-29T12:50:25.030Z,101691.63
2022-11-29T12:53:29.411Z,101696.22
2022-11-29T12:56:36.506Z,101698.78
2022-11-29T12:59:27.943Z,101699.38
2022-11-29T13:02:19.349Z,101697.47
2022-11-29T13:05:06.697Z,101711.81
2022-11-29T13:07:59.659Z,101710.91
2022-11-29T13:10:31.938Z,101702.84
2022-11-29T13:13:12.229Z,101715.34
2022-11-29T13:15:46.377Z,101712.31
2022-11-29T13:18:26.931Z,101719.28
2022-11-29T13:21:01.428Z,101718.69
2022-11-29T13:24:06.920Z,101722.78
2022-11-29T13:26:26.273Z,101716.28
2022-11-29T13:28:53.835Z,101716.81
2022-11-29T13:31:25.604Z,101718.63
2022-11-29T13:34:04.377Z,101719.09
2022-11-29T13:36:51.109Z,101722.91
2022-11-29T13:39:36.470Z,101719.84
2022-11-29T13:42:22.575Z,101727.78
2022-11-29T13:45:01.259Z,101732.50
2022-11-29T13:47:27.968Z,101726.66
2022-11-29T13:50:03.691Z,101729.28
2022-11-29T13:52:30.087Z,101723.38
2022-11-29T13:55:11.902Z,101731.00
2022-11-29T13:58:19.239Z,101732.91
2022-11-29T14:00:45.774Z,101737.69
2022-11-29T14:03:24.504Z,101741.34
2022-11-29T14:05:53.578Z,101734.47
2022-11-29T14:08:47.676Z,101736.63
2022-11-29T14:11:17.518Z,101735.50
2022-11-29T14:13:48.865Z,101733.47
2022-11-29T14:16:25.700Z,101733.03
2022-11-29T14:19:10.653Z,101734.09
2022-11-29T14:21:59.054Z,101739.22
2022-11-29T14:24:35.398Z,101743.53
2022-11-29T14:27:07.657Z,101741.94
2022-11-29T14:29:49.142Z,101735.50
2022-11-29T14:32:46.467Z,101729.88
2022-11-29T14:35:13.122Z,101735.63
2022-11-29T14:37:58.335Z,101733.19
2022-11-29T14:40:31.468Z,101738.72
2022-11-29T14:42:58.223Z,101739.53
2022-11-29T14:45:33.735Z,101744.56
2022-11-29T14:48:01.714Z,101741.03
2022-11-29T14:50:35.333Z,101744.19
2022-11-29T14:53:03.262Z,101743.25
2022-11-29T14:55:33.793Z,101743.00
2022-11-29T14:58:16.193Z,101753.22
2022-11-29T15:00:48.551Z,101751.66
2022-11-29T15:03:24.540Z,101757.78
2022-11-29T15:05:57.742Z,101751.66
2022-11-29T15:08:26.902Z,101755.34
2022-11-29T15:11:04.520Z,101756.56
2022-11-29T15:13:34.145Z,101753.00
2022-11-29T15:16:05.751Z,101752.44
2022-11-29T15:18:50.531Z,101753.53
2022-11-29T15:21:55.271Z,101753.31
2022-11-29T15:24:26.708Z,101751.09
2022-11-29T15:27:04.100Z,101745.72
2022-11-29T15:29:31.960Z,101751.25
2022-11-29T15:32:05.685Z,101743.78
2022-11-29T15:34:34.520Z,101751.38
2022-11-29T15:37:01.405Z,101747.59
2022-11-29T15:39:37.741Z,101748.09
2022-11-29T15:42:10.693Z,101754.66
2022-11-29T15:44:37.704Z,101753.81
2022-11-29T15:47:16.280Z,101763.34
2022-11-29T15:49:42.851Z,101762.97
2022-11-29T15:52:20.063Z,101755.78
2022-11-29T15:54:51.264Z,101766.69
2022-11-29T15:57:24.987Z,101762.56
2022-11-29T16:00:01.223Z,101765.59
2022-11-29T16:02:38.188Z,101770.09
2022-11-29T16:05:14.466Z,101765.19
2022-11-29T16:07:41.829Z,101777.94
2022-11-29T16:10:16.549Z,101785.28
2022-11-29T16:12:55.105Z,101779.91
2022-11-29T16:15:30.713Z,101785.75
2022-11-29T16:18:03.580Z,101778.56
2022-11-29T16:20:30.382Z,101770.09
2022-11-29T16:23:14.861Z,101777.69
2022-11-29T16:25:58.916Z,101776.13
2022-11-29T16:28:29.288Z,101777.84
2022-11-29T16:30:55.811Z,101786.63
2022-11-29T16:33:24.504Z,101784.06
2022-11-29T16:35:51.758Z,101788.13
2022-11-29T16:38:21.703Z,101790.19
2022-11-29T16:41:19.978Z,101783.31
2022-11-29T16:43:56.249Z,101788.59
2022-11-29T16:46:22.744Z,101794.47
2022-11-29T16:48:50.410Z,101791.16
2022-11-29T16:51:23.796Z,101796.19
2022-11-29T16:53:51.915Z,101802.44
2022-11-29T16:56:27.714Z,101797.53
2022-11-29T16:59:24.986Z,101792.25
2022-11-29T17:01:46.703Z,101797.78
2022-11-29T17:04:13.263Z,101792.50
2022-11-29T17:06:50.782Z,101795.31
2022-11-29T17:09:29.599Z,101794.34
2022-11-29T17:11:59.729Z,101794.34
2022-11-29T17:14:26.702Z,101791.38
2022-11-29T17:16:53.316Z,101793.25
2022-11-29T17:19:25.330Z,101792.00
2022-11-29T17:21:53.008Z,101794.69
2022-11-29T17:24:21.164Z,101793.22
2022-11-29T17:26:47.819Z,101797.00
2022-11-29T17:29:16.020Z,101809.88
2022-11-29T17:31:44.154Z,101804.84
2022-11-29T17:34:10.975Z,101800.22
2022-11-29T17:36:38.265Z,101809.25
2022-11-29T17:39:05.667Z,101810.13
2022-11-29T17:41:33.065Z,101807.44
2022-11-29T17:44:00.456Z,101808.53
2022-11-29T17:46:30.124Z,101808.78
2022-11-29T17:48:59.778Z,101817.09
2022-11-29T17:51:51.078Z,101821.00
2022-11-29T17:54:13.084Z,101816.38
2022-11-29T17:56:39.588Z,101823.81
2022-11-29T17:59:06.122Z,101825.88
2022-11-29T18:01:35.825Z,101826.50
2022-11-29T18:04:05.212Z,101823.94
2022-11-29T18:06:36.796Z,101831.66
2022-11-29T18:09:04.729Z,101838.25
2022-11-29T18:11:48.205Z,101833.72
2022-11-29T18:14:28.043Z,101836.16
2022-11-29T18:16:54.661Z,101838.00
2022-11-29T18:19:22.627Z,101839.00
2022-11-29T18:21:50.191Z,101843.13
2022-11-29T18:24:17.716Z,101848.16
2022-11-29T18:26:44.479Z,101847.06
2022-11-29T18:29:11.083Z,101844.00
2022-11-29T18:31:41.090Z,101854.88
2022-11-29T18:34:09.892Z,101849.38
2022-11-29T18:36:48.237Z,101846.31
2022-11-29T18:39:19.674Z,101847.28
2022-11-29T18:41:49.455Z,101848.28
2022-11-29T18:44:18.549Z,101856.22
2022-11-29T18:46:45.962Z,101862.56
2022-11-29T18:49:14.885Z,101855.97
2022-11-29T18:51:44.823Z,101855.84
2022-11-29T18:54:12.069Z,101853.41
2022-11-29T18:56:38.777Z,101854.16
2022-11-29T18:59:07.294Z,101853.63
2022-11-29T19:01:41.224Z,101860.63
2022-11-29T19:04:16.686Z,101863.78
2022-11-29T19:06:43.541Z,101862.56
2022-11-29T19:09:21.819Z,101866.94
2022-11-29T19:11:49.618Z,101874.19
2022-11-29T19:14:16.137Z,101879.16
2022-11-29T19:16:45.105Z,101873.41
2022-11-29T19:19:14.150Z,101883.56
2022-11-29T19:21:41.378Z,101882.97
2022-11-29T19:24:14.236Z,101889.78
2022-11-29T19:26:44.248Z,101878.44
2022-11-29T19:29:11.561Z,101885.25
2022-11-29T19:31:39.310Z,101885.00
2022-11-29T19:34:06.589Z,101879.63
2022-11-29T19:36:33.139Z,101882.56
2022-11-29T19:39:00.831Z,101886.09
2022-11-29T19:41:33.214Z,101886.97
2022-11-29T19:44:02.082Z,101889.66
2022-11-29T19:46:34.249Z,101885.25
2022-11-29T19:49:01.757Z,101888.78
2022-11-29T19:51:29.808Z,101894.38
2022-11-29T19:53:59.294Z,101891.38
2022-11-29T19:56:26.993Z,101889.78
2022-11-29T19:58:54.252Z,101892.56
2022-11-29T20:01:25.145Z,101884.63
2022-11-29T20:03:52.453Z,101890.00
2022-11-29T20:06:19.523Z,101889.00
2022-11-29T20:08:46.635Z,101885.50
2022-11-29T20:11:15.827Z,101891.75
2022-11-29T20:13:44.614Z,101896.97
2022-11-29T20:16:14.597Z,101887.69
2022-11-29T20:18:50.101Z,101894.94
2022-11-29T20:21:23.160Z,101902.00
2022-11-29T20:23:49.886Z,101905.53
2022-11-29T20:26:19.539Z,101902.00
2022-11-29T20:28:47.414Z,101905.53
2022-11-29T20:31:21.486Z,101895.25
2022-11-29T20:33:49.437Z,101907.00
2022-11-29T20:36:18.662Z,101907.22
2022-11-29T20:39:00.149Z,101907.31
2022-11-29T20:41:45.119Z,101914.78
2022-11-29T20:44:19.558Z,101914.44
2022-11-29T20:46:46.276Z,101916.16
2022-11-29T20:49:15.148Z,101913.06
2022-11-29T20:52:02.356Z,101914.66
2022-11-29T20:54:29.147Z,101914.56
2022-11-29T20:56:55.642Z,101911.88
2022-11-29T20:59:22.185Z,101917.13
2022-11-29T21:01:48.673Z,101915.84
2022-11-29T21:04:20.166Z,101916.94
2022-11-29T21:06:49.538Z,101921.50
2022-11-29T21:09:15.949Z,101919.91
2022-11-29T21:11:42.492Z,101924.13
2022-11-29T21:14:09.267Z,101923.13
2022-11-29T21:16:35.900Z,101924.63
2022-11-29T21:19:02.957Z,101923.91
2022-11-29T21:22:01.373Z,101923.91
2022-11-29T21:24:46.560Z,101926.88
2022-11-29T21:27:18.069Z,101930.13
2022-11-29T21:29:44.921Z,101933.66
2022-11-29T21:32:22.213Z,101934.56
2022-11-29T21:34:48.988Z,101931.66
2022-11-29T21:37:18.243Z,101936.63
2022-11-29T21:39:44.975Z,101930.66
2022-11-29T21:42:11.469Z,101933.44
2022-11-29T21:44:38.004Z,101947.97
2022-11-29T21:47:04.661Z,101946.19
2022-11-29T21:49:31.553Z,101944.19
2022-11-29T21:52:00.952Z,101951.31
2022-11-29T21:54:28.088Z,101947.28
2022-11-29T21:56:55.531Z,101952.66
2022-11-29T21:59:24.851Z,101950.66
2022-11-29T22:01:52.251Z,101954.00
2022-11-29T22:04:19.170Z,101950.44
2022-11-29T22:06:45.854Z,101944.94
2022-11-29T22:09:12.658Z,101950.78
2022-11-29T22:11:39.488Z,101949.81
2022-11-29T22:14:15.214Z,101947.47
2022-11-29T22:16:55.245Z,101959.59
2022-11-29T22:19:30.173Z,101960.22
2022-11-29T22:21:59.412Z,101958.59
2022-11-29T22:24:28.608Z,101955.81
2022-11-29T22:26:55.359Z,101955.22
2022-11-29T22:29:22.959Z,101954.25
2022-11-29T22:31:55.226Z,101953.41
2022-11-29T22:34:23.291Z,101952.53
2022-11-29T22:36:49.692Z,101959.16
2022-11-29T22:39:16.155Z,101949.38
2022-11-29T22:41:42.834Z,101954.63
2022-11-29T22:44:09.645Z,101955.63
2022-11-29T22:46:36.446Z,101959.53
2022-11-29T22:49:03.232Z,101959.66
2022-11-29T22:51:32.441Z,101957.59
2022-11-29T22:54:01.288Z,101956.25
2022-11-29T22:56:30.158Z,101970.06
2022-11-29T22:58:56.609Z,101966.16
2022-11-29T23:01:25.650Z,101977.00
2022-11-29T23:03:54.900Z,101972.72
2022-11-29T23:06:25.200Z,101979.44
2022-11-29T23:08:53.219Z,101980.34
2022-11-29T23:11:28.822Z,101983.03
2022-11-29T23:13:55.812Z,101988.16
2022-11-29T23:16:25.459Z,101973.84
2022-11-29T23:18:53.007Z,101976.88
2022-11-29T23:21:23.334Z,101982.38
2022-11-29T23:23:56.023Z,101987.53
2022-11-29T23:26:27.111Z,101986.19
2022-11-29T23:28:54.186Z,101988.13
2022-11-29T23:31:21.524Z,101987.53
2022-11-29T23:33:48.550Z,101986.91
2022-11-29T23:36:16.423Z,101987.50
2022-11-29T23:38:43.210Z,101986.19
2022-11-29T23:41:10.546Z,101988.72
2022-11-29T23:43:38.390Z,101987.50
2022-11-29T23:46:09.598Z,101996.94
2022-11-29T23:48:36.408Z,101989.44
2022-11-29T23:51:02.971Z,101990.19
2022-11-29T23:53:29.468Z,101998.25
2022-11-29T23:55:57.809Z,101993.84
2022-11-29T23:58:24.584Z,101989.22
